CAN6 weather

Prince Rupert/Digby Island Seaplane Base
Prince Rupert, British Columbia, Canada

Public forecast

Using degrees Celsius for public forecast. Weather courtesy of forecast.io.

Closest aviation weather report (METAR) to Prince Rupert/Digby Island Seaplane Base

Closest report is Prince Rupert Airport, 2.2 nm (4.0 km) SW. Retrieved 2019/11/19 19:00 UTC (27 minutes ago):

CYPR 191900Z AUTO 01004KT 330V050 9SM CLR 07/04 A3018 RMK SLP223

Closest aviation forecast (TAF) to Prince Rupert/Digby Island Seaplane Base

Closest forecast is Prince Rupert Airport, 2.2 nm (4.0 km) SW. Retrieved 2019/11/19 19:48 UTC (0 seconds ago):

TAF TAF CYPR 191845Z 1919/2007 VRB03KT P6SM FEW020 SCT140 RMK FCST BASED ON AUTO OBS NXT FCST BY 200100Z